Time;durP1;ratioP1;P1;durP2;ratioP2;P2;SDS_P1;SDS_P2;PMS_P1;PMS_P2;Temp;Humidity;BMP_temperature;BMP_pressure;BME280_temperature;BME280_humidity;BME280_pressure;Samples;Min_cycle;Max_cycle;Signal;HPM_P1;HPM_P2
2023/10/23 00:01:40;;;;;;;2.97;1.90;;;;;;;8.95;100.00;100049.16;5042805;28;20737;-77
2023/10/23 00:04:06;;;;;;;2.37;1.90;;;;;;;8.92;100.00;100055.22;5045473;28;20186;-77
2023/10/23 00:06:31;;;;;;;3.03;1.93;;;;;;;8.87;100.00;100049.22;5042994;28;20205;-77
2023/10/23 00:08:57;;;;;;;3.20;1.97;;;;;;;8.83;100.00;100048.38;5045653;28;20285;-78
2023/10/23 00:11:28;;;;;;;2.40;2.00;;;;;;;8.82;100.00;100051.81;5040619;28;20183;-78
2023/10/23 00:13:53;;;;;;;2.83;2.07;;;;;;;8.82;100.00;100051.81;5045343;28;20188;-77
2023/10/23 00:16:19;;;;;;;3.03;1.90;;;;;;;8.80;100.00;100057.84;5044463;28;20203;-77
2023/10/23 00:18:44;;;;;;;2.93;1.90;;;;;;;8.76;100.00;100063.91;5045862;28;20183;-77
2023/10/23 00:21:10;;;;;;;2.80;2.00;;;;;;;8.73;100.00;100072.50;5045377;28;20190;-77
2023/10/23 00:23:35;;;;;;;3.23;2.07;;;;;;;8.68;100.00;100069.09;5045233;28;20200;-77
2023/10/23 00:26:00;;;;;;;2.77;1.63;;;;;;;8.66;100.00;100071.66;5033584;28;20794;-77
2023/10/23 00:28:26;;;;;;;2.37;1.60;;;;;;;8.65;100.00;100075.13;5045234;28;20300;-78
2023/10/23 00:30:51;;;;;;;1.63;1.50;;;;;;;8.65;100.00;100074.28;5043755;28;20196;-76
2023/10/23 00:33:16;;;;;;;3.03;1.80;;;;;;;8.63;100.00;100070.84;5044516;28;20716;-77
2023/10/23 00:35:41;;;;;;;4.27;1.87;;;;;;;8.59;100.00;100070.00;5045612;28;20224;-77
2023/10/23 00:38:16;;;;;;;2.40;1.70;;;;;;;8.56;100.00;100072.59;5043261;28;20217;-76
2023/10/23 00:40:41;;;;;;;2.67;2.10;;;;;;;8.55;100.00;100070.88;5043537;28;20211;-76
2023/10/23 00:43:20;;;;;;;2.37;1.60;;;;;;;8.56;100.00;100070.00;5040736;28;20232;-76
2023/10/23 00:45:57;;;;;;;2.27;1.90;;;;;;;8.58;100.00;100064.81;5043211;28;20215;-77
2023/10/23 00:48:23;;;;;;;2.00;1.57;;;;;;;8.59;100.00;100066.53;5044096;28;20289;-77
2023/10/23 00:50:50;;;;;;;3.07;1.70;;;;;;;8.59;100.00;100066.53;5043627;28;20201;-78
2023/10/23 00:53:22;;;;;;;2.40;1.47;;;;;;;8.59;100.00;100058.81;5042545;28;20835;-77
2023/10/23 00:55:49;;;;;;;2.63;1.73;;;;;;;8.57;100.00;100065.69;5042417;28;20272;-76
2023/10/23 00:58:15;;;;;;;1.77;1.50;;;;;;;8.54;100.00;100064.88;5040695;28;20189;-76
2023/10/23 01:00:43;;;;;;;3.00;1.87;;;;;;;8.55;100.00;100060.56;5042078;28;20229;-77
2023/10/23 01:03:09;;;;;;;1.93;1.60;;;;;;;8.52;100.00;100061.44;5040398;28;20664;-76
2023/10/23 01:05:34;;;;;;;2.23;1.77;;;;;;;8.48;100.00;100061.44;5042556;28;20193;-76
2023/10/23 01:08:00;;;;;;;1.90;1.70;;;;;;;8.44;100.00;100065.72;5043737;28;20225;-76
2023/10/23 01:10:25;;;;;;;1.90;1.43;;;;;;;8.40;100.00;100058.84;5042001;28;20214;-77
2023/10/23 01:12:53;;;;;;;2.03;1.63;;;;;;;8.37;100.00;100053.72;5041625;28;20616;-76
2023/10/23 01:15:21;;;;;;;1.90;1.70;;;;;;;8.33;100.00;100059.75;5040520;28;20596;-78
2023/10/23 01:17:47;;;;;;;1.77;1.50;;;;;;;8.29;100.00;100058.91;5043000;28;20522;-76
2023/10/23 01:20:14;;;;;;;1.80;1.60;;;;;;;8.24;100.00;100060.63;5041467;28;20185;-76
2023/10/23 01:22:40;;;;;;;2.43;1.67;;;;;;;8.19;100.00;100057.19;5041977;28;20184;-76
2023/10/23 01:25:23;;;;;;;2.20;1.60;;;;;;;8.16;100.00;100059.81;5041229;28;20183;-77
2023/10/23 01:27:49;;;;;;;1.50;1.40;;;;;;;8.12;100.00;100061.50;5042331;28;20219;-77
2023/10/23 01:30:14;;;;;;;2.43;1.67;;;;;;;8.10;100.00;100060.66;5043661;28;20194;-77
2023/10/23 01:32:44;;;;;;;2.47;1.70;;;;;;;8.10;100.00;100068.38;5043401;28;20173;-77
2023/10/23 01:35:10;;;;;;;2.17;1.70;;;;;;;8.09;100.00;100064.13;5041944;28;20194;-77
2023/10/23 01:37:36;;;;;;;1.70;1.40;;;;;;;8.08;100.00;100062.41;5041797;28;20571;-78
2023/10/23 01:40:03;;;;;;;3.70;1.80;;;;;;;8.07;100.00;100063.25;5053172;28;20750;-77
2023/10/23 01:42:30;;;;;;;2.20;1.67;;;;;;;8.02;100.00;100057.25;5056916;28;20200;-77
2023/10/23 01:44:57;;;;;;;2.77;1.60;;;;;;;7.99;100.00;100059.81;5039331;28;20252;-77
2023/10/23 01:47:26;;;;;;;3.73;1.87;;;;;;;7.94;100.00;100055.53;5042619;28;20588;-77
2023/10/23 01:49:51;;;;;;;1.57;1.33;;;;;;;7.90;100.00;100056.41;5045461;28;20277;-77
2023/10/23 01:52:17;;;;;;;2.80;1.63;;;;;;;7.86;100.00;100054.69;5058287;28;20541;-77
2023/10/23 01:54:43;;;;;;;2.13;1.70;;;;;;;7.85;100.00;100052.16;5040871;28;20207;-78
2023/10/23 01:57:13;;;;;;;2.73;1.70;;;;;;;7.84;100.00;100053.00;5041294;28;20886;-77
2023/10/23 01:59:38;;;;;;;2.00;1.50;;;;;;;7.80;100.00;100059.84;5043829;28;20327;-77
2023/10/23 02:02:04;;;;;;;2.93;1.53;;;;;;;7.78;100.00;100051.28;5043088;28;20234;-78
2023/10/23 02:04:30;;;;;;;2.53;1.90;;;;;;;7.77;100.00;100057.31;5044517;28;20187;-77
2023/10/23 02:06:55;;;;;;;1.83;1.63;;;;;;;7.78;100.00;100053.88;5043294;28;20216;-77
2023/10/23 02:09:21;;;;;;;2.40;1.73;;;;;;;7.77;100.00;100058.16;5044506;28;20211;-77
2023/10/23 02:11:47;;;;;;;2.20;2.00;;;;;;;7.73;100.00;100051.28;5043880;28;20180;-77
2023/10/23 02:14:12;;;;;;;1.47;1.27;;;;;;;7.68;100.00;100054.72;5042441;28;20229;-77
2023/10/23 02:16:38;;;;;;;2.73;1.67;;;;;;;7.63;100.00;100054.72;5039467;28;20180;-77
2023/10/23 02:19:03;;;;;;;2.53;1.60;;;;;;;7.60;100.00;100052.16;5040724;28;20266;-77
2023/10/23 02:21:28;;;;;;;2.20;1.50;;;;;;;7.59;100.00;100058.16;5037207;28;20191;-78
2023/10/23 02:23:54;;;;;;;3.87;1.60;;;;;;;7.58;100.00;100046.13;5044617;28;20180;-76
2023/10/23 02:26:19;;;;;;;2.30;1.47;;;;;;;7.59;100.00;100053.88;5041243;28;20645;-78
2023/10/23 02:28:44;;;;;;;4.63;1.90;;;;;;;7.59;100.00;100046.16;5041784;28;20199;-77
2023/10/23 02:31:10;;;;;;;2.67;1.73;;;;;;;7.62;100.00;100059.03;5044281;28;20185;-77
2023/10/23 02:33:36;;;;;;;1.90;1.40;;;;;;;7.61;100.00;100059.00;5043633;28;20197;-77
2023/10/23 02:36:01;;;;;;;1.60;1.50;;;;;;;7.60;100.00;100063.31;5041771;28;20198;-77
2023/10/23 02:38:27;;;;;;;1.90;1.70;;;;;;;7.61;100.00;100071.91;5042722;28;20210;-77
2023/10/23 02:40:53;;;;;;;3.57;1.87;;;;;;;7.57;100.00;100065.91;5043033;28;20182;-77
2023/10/23 02:43:19;;;;;;;2.00;1.63;;;;;;;7.54;100.00;100053.00;5042650;28;20208;-77
2023/10/23 02:45:44;;;;;;;1.87;1.33;;;;;;;7.52;100.00;100048.72;5044199;28;20208;-77
2023/10/23 02:48:09;;;;;;;2.47;1.40;;;;;;;7.47;100.00;100047.00;5042813;28;20323;-78
2023/10/23 02:50:35;;;;;;;1.83;1.43;;;;;;;7.42;100.00;100051.28;5044415;28;20212;-77
2023/10/23 02:53:00;;;;;;;2.80;1.70;;;;;;;7.39;100.00;100059.03;5051222;28;20249;-77
2023/10/23 02:55:26;;;;;;;2.80;1.77;;;;;;;7.37;100.00;100062.44;5037053;28;20211;-78
2023/10/23 02:57:52;;;;;;;2.63;1.70;;;;;;;7.31;100.00;100053.88;5037976;28;20204;-76
2023/10/23 03:00:19;;;;;;;4.10;1.90;;;;;;;7.29;100.00;100057.28;5044302;28;20194;-78
2023/10/23 03:02:44;;;;;;;4.10;2.10;;;;;;;7.33;100.00;100051.28;5049667;28;20247;-76
2023/10/23 03:05:10;;;;;;;2.33;2.13;;;;;;;7.37;100.00;100047.00;5040393;28;20290;-77
2023/10/23 03:07:35;;;;;;;2.87;2.03;;;;;;;7.39;100.00;100045.28;5038819;28;20309;-77
2023/10/23 03:10:00;;;;;;;3.10;2.03;;;;;;;7.40;100.00;100042.72;5039048;28;20199;-78
2023/10/23 03:12:26;;;;;;;2.90;2.20;;;;;;;7.43;100.00;100044.44;5038273;28;20187;-78
2023/10/23 03:14:52;;;;;;;2.13;1.70;;;;;;;7.44;100.00;100046.16;5038531;28;20182;-77
2023/10/23 03:17:18;;;;;;;2.50;1.77;;;;;;;7.44;100.00;100052.16;5042101;28;20211;-78
2023/10/23 03:19:43;;;;;;;2.87;2.00;;;;;;;7.44;100.00;100041.84;5044319;28;20182;-77
2023/10/23 03:22:09;;;;;;;3.83;1.90;;;;;;;7.44;100.00;100039.28;5032352;28;20184;-78
2023/10/23 03:24:34;;;;;;;2.13;1.80;;;;;;;7.43;100.00;100042.72;5041436;28;20192;-77
2023/10/23 03:26:59;;;;;;;2.33;1.50;;;;;;;7.42;100.00;100042.72;5032674;28;20986;-78
2023/10/23 03:29:25;;;;;;;1.90;1.57;;;;;;;7.38;100.00;100036.72;5038996;28;20629;-78
2023/10/23 03:31:52;;;;;;;3.33;1.90;;;;;;;7.32;100.00;100035.00;5042167;28;20275;-77
2023/10/23 03:34:17;;;;;;;2.60;2.17;;;;;;;7.27;100.00;100035.84;5047501;28;20922;-76
2023/10/23 03:36:43;;;;;;;2.00;1.80;;;;;;;7.21;100.00;100036.69;5047240;28;20203;-78
2023/10/23 03:39:09;;;;;;;3.10;2.23;;;;;;;7.15;100.00;100037.56;5058483;28;20187;-78
2023/10/23 03:41:34;;;;;;;2.43;2.00;;;;;;;7.13;100.00;100041.84;5048356;28;20277;-77
2023/10/23 03:44:02;;;;;;;2.37;2.17;;;;;;;7.07;100.00;100033.25;5043774;28;20289;-77
2023/10/23 03:46:27;;;;;;;2.73;2.10;;;;;;;7.03;100.00;100039.28;5044748;28;20190;-77
2023/10/23 03:48:56;;;;;;;4.60;2.40;;;;;;;6.97;100.00;100040.97;5045241;28;20209;-77
2023/10/23 03:51:22;;;;;;;2.40;2.00;;;;;;;6.94;100.00;100034.97;5045490;28;20569;-77
2023/10/23 03:53:47;;;;;;;2.33;2.13;;;;;;;6.92;100.00;100039.25;5045252;28;20191;-77
2023/10/23 03:56:12;;;;;;;2.50;2.10;;;;;;;6.94;100.00;100038.38;5041097;28;20194;-77
2023/10/23 03:58:38;;;;;;;3.13;2.43;;;;;;;6.96;100.00;100039.25;5046545;28;20206;-77
2023/10/23 04:01:03;;;;;;;3.53;2.30;;;;;;;6.97;100.00;100029.78;5046915;28;20674;-77
2023/10/23 04:03:28;;;;;;;2.30;2.10;;;;;;;6.97;100.00;100037.50;5046713;28;20556;-77
2023/10/23 04:05:54;;;;;;;2.57;2.27;;;;;;;6.94;100.00;100025.50;5045105;28;20678;-77
2023/10/23 04:08:19;;;;;;;2.60;2.10;;;;;;;6.93;100.00;100031.50;5047113;28;20215;-77
2023/10/23 04:10:48;;;;;;;2.27;2.00;;;;;;;6.94;100.00;100032.41;5044343;28;20187;-77
2023/10/23 04:13:16;;;;;;;2.97;2.20;;;;;;;6.92;100.00;100032.38;5046879;28;20195;-77
2023/10/23 04:16:02;;;;;;;2.60;2.23;;;;;;;6.89;100.00;100027.22;5043347;28;20198;-78
2023/10/23 04:18:27;;;;;;;2.20;2.00;;;;;;;6.88;100.00;100027.22;5046187;28;20855;-76
2023/10/23 04:21:07;;;;;;;3.57;2.40;;;;;;;6.87;100.00;100021.22;5045866;28;20182;-78
2023/10/23 04:23:33;;;;;;;2.37;2.00;;;;;;;6.85;100.00;100020.38;5042877;28;20188;-77
2023/10/23 04:25:58;;;;;;;2.83;2.10;;;;;;;6.82;100.00;100012.63;5043648;28;20321;-77
2023/10/23 04:28:24;;;;;;;4.13;2.00;;;;;;;6.77;100.00;100017.78;5046699;28;20225;-77
2023/10/23 04:30:49;;;;;;;2.87;2.20;;;;;;;6.74;100.00;100017.75;5043122;28;20201;-78
2023/10/23 04:33:19;;;;;;;5.23;2.03;;;;;;;6.69;100.00;100012.63;5046660;28;20556;-78
2023/10/23 04:35:44;;;;;;;4.07;2.47;;;;;;;6.64;100.00;100004.03;5060101;28;20654;-77
2023/10/23 04:38:10;;;;;;;2.30;2.00;;;;;;;6.60;100.00;100004.84;5044905;28;20207;-78
2023/10/23 04:40:35;;;;;;;2.43;1.90;;;;;;;6.58;100.00;100009.13;5044068;28;20218;-79
2023/10/23 04:43:00;;;;;;;3.67;2.13;;;;;;;6.54;100.00;100008.28;5044907;28;20280;-78
2023/10/23 04:45:26;;;;;;;4.37;2.60;;;;;;;6.53;100.00;100003.13;5045148;28;20267;-78
2023/10/23 04:47:51;;;;;;;2.87;1.90;;;;;;;6.51;100.00;99997.13;5043452;28;20218;-78
2023/10/23 04:50:16;;;;;;;2.63;1.90;;;;;;;6.49;100.00;99991.13;5046478;28;20187;-78
2023/10/23 04:52:42;;;;;;;1.70;1.60;;;;;;;6.46;100.00;99997.13;5045558;28;20705;-77
2023/10/23 04:55:08;;;;;;;2.37;2.13;;;;;;;6.44;100.00;99996.25;5044501;28;20206;-77
2023/10/23 04:57:33;;;;;;;2.23;2.03;;;;;;;6.42;100.00;99999.69;5044898;28;20212;-77
2023/10/23 04:59:59;;;;;;;2.87;2.17;;;;;;;6.37;100.00;99994.50;5042373;28;20195;-78
2023/10/23 05:02:24;;;;;;;2.70;2.50;;;;;;;6.32;100.00;99984.22;5036817;28;20198;-77
2023/10/23 05:04:49;;;;;;;2.20;2.00;;;;;;;6.31;100.00;99985.06;5043095;28;20857;-78
2023/10/23 05:07:15;;;;;;;2.50;2.20;;;;;;;6.29;100.00;99983.34;5044113;28;20225;-76
2023/10/23 05:09:41;;;;;;;2.43;1.90;;;;;;;6.25;100.00;99991.03;5043589;28;20656;-77
2023/10/23 05:12:06;;;;;;;2.33;2.10;;;;;;;6.23;100.00;99981.63;5040272;28;20198;-77
2023/10/23 05:14:32;;;;;;;3.10;2.07;;;;;;;6.20;100.00;99989.31;5041855;28;20218;-78
2023/10/23 05:16:57;;;;;;;2.93;2.63;;;;;;;6.19;100.00;99985.03;5040963;28;20280;-78
2023/10/23 05:19:22;;;;;;;2.10;1.90;;;;;;;6.17;100.00;99987.59;5071498;28;20187;-77
2023/10/23 05:21:48;;;;;;;2.60;2.00;;;;;;;6.15;100.00;99981.59;5057548;28;20627;-76
2023/10/23 05:24:13;;;;;;;3.87;2.10;;;;;;;6.14;100.00;99969.59;5043172;28;20270;-77
2023/10/23 05:26:38;;;;;;;2.50;2.30;;;;;;;6.13;100.00;99975.59;5039585;28;21079;-77
2023/10/23 05:29:03;;;;;;;2.57;2.27;;;;;;;6.16;100.00;99969.59;5040871;28;20517;-78
2023/10/23 05:31:29;;;;;;;3.70;2.10;;;;;;;6.19;100.00;99977.31;5037912;28;20606;-78
2023/10/23 05:33:54;;;;;;;3.63;2.40;;;;;;;6.19;100.00;99987.59;5047074;28;20188;-78
2023/10/23 05:36:19;;;;;;;2.50;1.73;;;;;;;6.19;100.00;99991.03;5064335;28;20180;-77
2023/10/23 05:38:45;;;;;;;3.50;1.80;;;;;;;6.19;100.00;99997.88;5050474;28;20219;-75
2023/10/23 05:41:10;;;;;;;2.97;1.97;;;;;;;6.17;100.00;100002.13;5042799;28;20901;-76
2023/10/23 05:43:36;;;;;;;2.70;1.70;;;;;;;6.16;100.00;100009.00;5037171;28;20573;-77
2023/10/23 05:46:03;;;;;;;1.70;1.60;;;;;;;6.15;100.00;100003.84;5039467;28;20195;-77
2023/10/23 05:48:28;;;;;;;2.33;1.80;;;;;;;6.14;100.00;99997.84;5038613;28;20218;-77
2023/10/23 05:50:58;;;;;;;3.80;2.00;;;;;;;6.12;100.00;100002.13;5041441;28;20197;-78
2023/10/23 05:53:24;;;;;;;2.37;1.60;;;;;;;6.10;100.00;100002.13;5040336;28;20678;-77
2023/10/23 05:55:52;;;;;;;2.37;1.70;;;;;;;6.08;100.00;99998.69;5041433;28;20218;-77
2023/10/23 05:58:18;;;;;;;2.47;1.70;;;;;;;6.07;100.00;99989.25;5045099;28;20207;-78
2023/10/23 06:00:43;;;;;;;3.47;1.70;;;;;;;6.04;100.00;99996.94;5055790;28;20195;-78
2023/10/23 06:03:08;;;;;;;1.70;1.30;;;;;;;6.03;100.00;99997.78;5040382;28;20195;-77
2023/10/23 06:05:40;;;;;;;2.77;1.60;;;;;;;6.02;100.00;99987.53;5042829;28;20710;-77
2023/10/23 06:08:05;;;;;;;3.93;1.87;;;;;;;6.01;100.00;99984.06;5057292;28;20333;-77
2023/10/23 06:10:39;;;;;;;2.80;2.03;;;;;;;6.01;100.00;99984.06;5039726;28;20183;-77
2023/10/23 06:13:04;;;;;;;4.67;1.80;;;;;;;6.05;100.00;99980.69;5038147;28;20726;-76
2023/10/23 06:15:32;;;;;;;2.20;1.50;;;;;;;6.09;100.00;99986.69;5036898;28;20205;-77
2023/10/23 06:17:57;;;;;;;3.10;2.03;;;;;;;6.13;100.00;99984.97;5039376;28;20202;-77
2023/10/23 06:20:22;;;;;;;3.17;1.57;;;;;;;6.16;100.00;99980.75;5047843;28;20239;-77
2023/10/23 06:22:48;;;;;;;2.63;2.00;;;;;;;6.19;100.00;99978.19;5039236;28;20189;-77
2023/10/23 06:25:13;;;;;;;2.30;1.77;;;;;;;6.22;100.00;99973.03;5042897;28;20183;-76
2023/10/23 06:27:38;;;;;;;2.87;1.53;;;;;;;6.24;100.00;99970.50;5042125;28;20754;-77
2023/10/23 06:30:04;;;;;;;2.00;1.80;;;;;;;6.25;100.00;99970.47;5046177;28;20888;-77
2023/10/23 06:32:34;;;;;;;3.57;1.83;;;;;;;6.27;100.00;99970.50;5041836;28;20179;-78
2023/10/23 06:34:59;;;;;;;3.40;1.80;;;;;;;6.32;100.00;99975.66;5040375;28;20540;-77
2023/10/23 06:37:30;;;;;;;2.73;1.80;;;;;;;6.35;100.00;99971.38;5042467;28;20212;-77
2023/10/23 06:39:56;;;;;;;3.00;1.50;;;;;;;6.40;100.00;99977.41;5040696;28;20245;-77
2023/10/23 06:42:24;;;;;;;3.73;1.87;;;;;;;6.52;100.00;99979.13;5036683;28;20191;-77
2023/10/23 06:44:50;;;;;;;4.40;1.70;;;;;;;6.67;100.00;99969.72;5041558;28;20660;-78
2023/10/23 06:47:15;;;;;;;4.07;2.30;;;;;;;6.77;100.00;99962.91;5041322;28;20224;-77
2023/10/23 06:49:44;;;;;;;5.07;2.50;;;;;;;6.84;100.00;99969.78;5039526;28;20187;-77
2023/10/23 06:52:09;;;;;;;4.50;2.90;;;;;;;6.93;100.00;99953.50;5039510;28;20300;-77
2023/10/23 06:54:34;;;;;;;6.50;2.63;;;;;;;7.10;100.00;99959.50;5039735;28;20188;-77
2023/10/23 06:57:00;;;;;;;7.40;2.20;;;;;;;7.20;100.00;99959.50;5038235;28;20235;-76
2023/10/23 06:59:27;;;;;;;5.40;2.20;;;;;;;7.22;100.00;99956.06;5038479;28;20188;-75
2023/10/23 07:01:52;;;;;;;3.60;2.00;;;;;;;7.19;100.00;99957.78;5037719;28;20599;-76
2023/10/23 07:04:18;;;;;;;3.23;1.93;;;;;;;7.30;100.00;99961.19;5037556;28;20233;-77
2023/10/23 07:06:43;;;;;;;4.17;1.87;;;;;;;7.32;100.00;99962.94;5037077;28;20269;-77
2023/10/23 07:09:08;;;;;;;2.90;1.83;;;;;;;7.39;100.00;99973.19;5039653;28;20189;-78
2023/10/23 07:11:33;;;;;;;3.50;1.67;;;;;;;7.48;100.00;99973.22;5038300;28;20208;-77
2023/10/23 07:13:59;;;;;;;3.77;1.80;;;;;;;7.63;100.00;99969.72;5040296;28;20248;-77
2023/10/23 07:16:25;;;;;;;2.30;1.60;;;;;;;7.74;100.00;99959.41;5039687;28;20196;-76
2023/10/23 07:18:50;;;;;;;3.10;1.73;;;;;;;7.80;100.00;99961.97;5039273;28;20275;-77
2023/10/23 07:21:16;;;;;;;1.93;1.50;;;;;;;7.89;100.00;99958.50;5032298;28;20185;-77
2023/10/23 07:23:41;;;;;;;2.00;1.60;;;;;;;7.97;100.00;99961.03;5038528;28;20193;-77
2023/10/23 07:26:12;;;;;;;3.07;1.80;;;;;;;8.05;100.00;99960.16;5041355;28;20745;-77
2023/10/23 07:28:38;;;;;;;3.40;1.77;;;;;;;8.11;100.00;99948.13;5037502;28;20889;-77
2023/10/23 07:31:05;;;;;;;2.73;1.97;;;;;;;8.12;100.00;99947.25;5064882;28;20205;-76
2023/10/23 07:33:30;;;;;;;4.60;2.03;;;;;;;8.19;100.00;99948.94;5039029;28;20973;-76
2023/10/23 07:36:06;;;;;;;2.80;1.87;;;;;;;8.24;100.00;99942.88;5063943;28;20176;-77
2023/10/23 07:38:32;;;;;;;2.97;1.77;;;;;;;8.32;100.00;99936.84;5048441;28;20251;-77
2023/10/23 07:40:57;;;;;;;2.97;1.60;;;;;;;8.37;100.00;99930.78;5038041;28;20190;-76
2023/10/23 07:43:24;;;;;;;7.17;2.17;;;;;;;8.50;100.00;99930.75;5039228;28;20194;-77
2023/10/23 07:45:49;;;;;;;2.83;1.70;;;;;;;8.53;100.00;99923.88;5039623;28;20186;-77
2023/10/23 07:48:16;;;;;;;4.70;2.03;;;;;;;8.53;100.00;99921.28;5041110;28;20606;-77
2023/10/23 07:50:42;;;;;;;4.57;2.13;;;;;;;8.57;100.00;99929.00;5041836;28;20327;-77
2023/10/23 07:53:07;;;;;;;5.07;2.17;;;;;;;8.58;100.00;99922.97;5037649;28;20706;-76
2023/10/23 07:55:33;;;;;;;4.23;2.03;;;;;;;8.60;100.00;99913.50;5040714;28;20842;-76
2023/10/23 07:57:58;;;;;;;4.90;2.00;;;;;;;8.62;100.00;99925.50;5040178;28;20585;-77
2023/10/23 08:00:23;;;;;;;4.70;1.90;;;;;;;8.62;100.00;99915.19;5040790;28;20323;-76
2023/10/23 08:02:48;;;;;;;2.33;1.77;;;;;;;8.64;100.00;99912.63;5039418;28;20181;-76
2023/10/23 08:05:14;;;;;;;3.33;2.10;;;;;;;8.65;100.00;99898.84;5040131;28;20187;-76
2023/10/23 08:07:39;;;;;;;3.70;2.60;;;;;;;8.67;100.00;99892.81;5040732;28;20209;-76
2023/10/23 08:10:05;;;;;;;4.37;1.90;;;;;;;8.67;100.00;99900.53;5038625;28;20185;-77
2023/10/23 08:12:30;;;;;;;5.40;2.13;;;;;;;8.66;100.00;99900.56;5039214;28;20197;-77
2023/10/23 08:14:56;;;;;;;3.47;1.90;;;;;;;8.69;100.00;99895.41;5036220;28;20186;-77
2023/10/23 08:17:21;;;;;;;3.70;2.10;;;;;;;8.77;100.00;99913.41;5039103;28;20198;-76
2023/10/23 08:19:46;;;;;;;4.73;2.27;;;;;;;8.82;100.00;99907.31;5043755;28;20757;-77
2023/10/23 08:22:12;;;;;;;3.60;2.27;;;;;;;8.90;100.00;99924.47;5042927;28;20273;-75
2023/10/23 08:24:37;;;;;;;4.57;1.90;;;;;;;9.02;100.00;99920.94;5044108;28;20250;-76
2023/10/23 08:27:02;;;;;;;3.60;2.30;;;;;;;9.08;100.00;99923.44;5040482;28;20225;-76
2023/10/23 08:29:28;;;;;;;4.77;2.27;;;;;;;9.17;100.00;99925.09;5044873;28;20197;-76
2023/10/23 08:31:57;;;;;;;3.90;2.50;;;;;;;9.21;100.00;99926.78;5043522;28;20231;-76
2023/10/23 08:34:22;;;;;;;4.60;2.23;;;;;;;9.27;100.00;99934.47;5043086;28;20229;-77
2023/10/23 08:36:48;;;;;;;4.90;2.27;;;;;;;9.35;100.00;99922.34;5043665;28;20288;-77
2023/10/23 08:39:13;;;;;;;4.63;2.33;;;;;;;9.43;100.00;99917.97;5041668;28;20189;-77
2023/10/23 08:41:39;;;;;;;2.60;2.00;;;;;;;9.56;100.00;99923.84;5042607;28;20689;-76
2023/10/23 08:44:05;;;;;;;4.83;2.30;;;;;;;9.68;100.00;99922.84;5042790;28;20191;-77
2023/10/23 08:46:32;;;;;;;3.20;2.07;;;;;;;9.76;100.00;99926.19;5046640;28;20846;-77
2023/10/23 08:48:57;;;;;;;3.90;2.20;;;;;;;9.83;100.00;99921.81;5045896;28;20186;-77
2023/10/23 08:51:23;;;;;;;6.63;2.53;;;;;;;9.88;100.00;99925.22;5043192;28;20217;-77
2023/10/23 08:53:54;;;;;;;6.63;2.50;;;;;;;9.89;100.00;99920.91;5042766;28;20311;-77
2023/10/23 08:56:22;;;;;;;3.57;2.50;;;;;;;9.96;100.00;99917.34;5043147;28;20190;-77
2023/10/23 08:58:55;;;;;;;6.67;2.57;;;;;;;10.02;100.00;99908.66;5043222;28;20336;-76
2023/10/23 09:01:21;;;;;;;4.17;2.37;;;;;;;10.05;100.00;99908.63;5040870;28;20216;-77
2023/10/23 09:03:46;;;;;;;2.97;2.20;;;;;;;10.01;100.00;99904.38;5043285;28;20178;-77
2023/10/23 09:06:16;;;;;;;3.80;2.60;;;;;;;9.99;100.00;99903.53;5043937;28;20217;-77
2023/10/23 09:08:42;;;;;;;7.90;3.00;;;;;;;10.06;100.00;99903.44;5036318;28;20219;-77
2023/10/23 09:11:07;;;;;;;5.77;2.77;;;;;;;10.16;100.00;99903.34;5040910;28;20186;-76
2023/10/23 09:13:36;;;;;;;6.80;2.90;;;;;;;10.20;100.00;99897.25;5041095;28;20195;-76
2023/10/23 09:16:03;;;;;;;4.80;2.67;;;;;;;10.20;100.00;99898.09;5038190;28;20199;-77
2023/10/23 09:18:29;;;;;;;4.80;3.27;;;;;;;10.23;100.00;99894.59;5043341;28;20701;-77
2023/10/23 09:20:55;;;;;;;5.17;3.27;;;;;;;10.27;100.00;99898.84;5040843;28;20214;-77
2023/10/23 09:23:21;;;;;;;4.43;2.73;;;;;;;10.34;100.00;99902.22;5040601;28;20271;-77
2023/10/23 09:25:48;;;;;;;4.20;2.70;;;;;;;10.40;100.00;99902.16;5038168;28;20188;-76
2023/10/23 09:28:13;;;;;;;5.30;3.33;;;;;;;10.45;100.00;99902.94;5039365;28;20248;-77
2023/10/23 09:30:38;;;;;;;5.17;2.80;;;;;;;10.53;100.00;99913.16;5035198;28;20621;-77
2023/10/23 09:33:05;;;;;;;5.60;2.70;;;;;;;10.66;100.00;99911.25;5036529;28;20241;-77
2023/10/23 09:35:31;;;;;;;4.73;2.73;;;;;;;10.79;100.00;99917.13;5056467;28;20277;-77
2023/10/23 09:37:59;;;;;;;3.27;2.87;;;;;;;10.84;100.00;99912.69;5055268;28;20241;-77
2023/10/23 09:40:26;;;;;;;4.23;2.93;;;;;;;10.97;100.00;99913.38;5045748;28;20212;-77
2023/10/23 09:42:52;;;;;;;2.77;2.23;;;;;;;11.06;100.00;99907.19;5045583;28;20738;-77
2023/10/23 09:45:19;;;;;;;5.23;2.70;;;;;;;11.13;100.00;99907.03;5043049;28;20191;-77
2023/10/23 09:47:46;;;;;;;6.13;2.63;;;;;;;11.14;100.00;99900.13;5041839;28;20230;-77
2023/10/23 09:50:11;;;;;;;5.00;2.63;;;;;;;11.15;100.00;99894.06;5043728;28;20187;-77
2023/10/23 09:52:37;;;;;;;4.23;2.70;;;;;;;11.16;100.00;99898.34;5040645;28;20197;-76
2023/10/23 09:55:06;;;;;;;4.37;2.90;;;;;;;11.11;100.00;99892.44;5043986;28;20228;-77
2023/10/23 09:57:35;;;;;;;4.53;2.60;;;;;;;11.07;100.00;99885.59;5043120;28;20696;-76
2023/10/23 10:00:05;;;;;;;3.43;2.30;;;;;;;11.06;100.00;99884.72;5044061;28;21028;-77
2023/10/23 10:02:34;;;;;;;3.90;2.60;;;;;;;11.12;100.00;99889.78;5043174;28;20975;-77
2023/10/23 10:05:05;;;;;;;5.07;3.00;;;;;;;11.21;100.00;99886.19;5043933;28;20189;-77
2023/10/23 10:07:54;;;;;;;5.17;3.17;;;;;;;11.20;100.00;99886.19;5042066;28;20239;-77
2023/10/23 10:10:20;;;;;;;3.47;2.73;;;;;;;11.31;100.00;99891.19;5044671;28;20202;-78
2023/10/23 10:12:46;;;;;;;3.30;2.43;;;;;;;11.41;100.00;99888.41;5044792;28;20187;-76
2023/10/23 10:15:12;;;;;;;2.90;2.17;;;;;;;11.52;100.00;99888.22;5047350;28;20179;-77
2023/10/23 10:17:41;;;;;;;2.40;1.90;;;;;;;11.58;100.00;99888.06;5044274;28;20208;-77
2023/10/23 10:20:09;;;;;;;2.97;2.20;;;;;;;11.62;100.00;99885.44;5044935;28;20201;-78
2023/10/23 10:22:38;;;;;;;3.00;2.30;;;;;;;11.68;100.00;99883.56;5044249;28;20188;-77
2023/10/23 10:25:05;;;;;;;2.63;2.40;;;;;;;11.74;100.00;99875.69;5043398;28;20247;-77
2023/10/23 10:27:31;;;;;;;4.67;3.50;;;;;;;11.80;100.00;99879.88;5039642;28;20203;-76
2023/10/23 10:30:00;;;;;;;4.57;4.00;;;;;;;11.86;100.00;99865.94;5045502;28;20215;-77
2023/10/23 10:32:26;;;;;;;4.87;3.80;;;;;;;11.90;100.00;99863.25;5044504;28;20192;-77
2023/10/23 10:34:53;;;;;;;3.00;2.70;;;;;;;11.95;100.00;99860.53;5048422;28;20175;-77
2023/10/23 10:37:22;;;;;;;5.07;2.93;;;;;;;12.00;100.00;99861.34;5044744;28;20251;-78
2023/10/23 10:39:50;;;;;;;6.80;3.07;;;;;;;12.07;100.00;99856.03;5043788;28;20719;-77
2023/10/23 10:42:26;;;;;;;5.40;4.20;;;;;;;12.15;100.00;99847.19;5041956;28;20187;-76
2023/10/23 10:44:56;;;;;;;3.47;3.00;;;;;;;12.25;100.00;99831.41;5040355;28;20563;-78
2023/10/23 10:47:38;;;;;;;5.60;3.07;;;;;;;12.37;100.00;99830.28;5043464;28;20199;-75
2023/10/23 10:50:05;;;;;;;3.07;2.77;;;;;;;12.48;100.00;99823.06;5040215;28;20183;-75
2023/10/23 10:52:42;;;;;;;3.73;2.67;;;;;;;12.65;100.00;99807.06;5042520;28;20183;-76
2023/10/23 10:55:09;;;;;;;3.60;2.40;;;;;;;12.79;100.00;99794.59;5040504;28;20797;-77
2023/10/23 10:57:40;;;;;;;3.27;2.30;;;;;;;12.90;100.00;99775.28;5042615;28;20208;-78
2023/10/23 11:00:06;;;;;;;2.83;2.23;;;;;;;12.92;100.00;99766.56;5040807;28;20791;-76
2023/10/23 11:02:31;;;;;;;6.13;3.47;;;;;;;12.77;100.00;99765.22;5043230;28;20184;-77
2023/10/23 11:04:57;;;;;;;6.27;2.77;;;;;;;12.52;100.00;99753.75;5040626;28;20560;-76
2023/10/23 11:07:26;;;;;;;4.23;2.50;;;;;;;12.52;100.00;99748.56;5040500;28;20404;-77
2023/10/23 11:09:53;;;;;;;7.43;2.37;;;;;;;12.61;100.00;99748.34;5041247;28;20186;-77
2023/10/23 11:12:19;;;;;;;4.30;2.80;;;;;;;12.52;100.00;99745.97;5041630;28;20280;-76
2023/10/23 11:14:45;;;;;;;3.90;2.50;;;;;;;12.52;100.00;99740.78;5041887;28;20725;-78
2023/10/23 11:17:11;;;;;;;3.30;1.93;;;;;;;12.78;100.00;99734.91;5040618;28;20378;-76
2023/10/23 11:19:37;;;;;;;7.13;2.37;;;;;;;12.94;100.00;99732.72;5044412;28;20183;-78
2023/10/23 11:22:10;;;;;;;2.83;2.27;;;;;;;12.96;100.00;99718.84;5039699;28;20310;-77
2023/10/23 11:24:35;;;;;;;6.00;3.20;;;;;;;12.74;100.00;99715.09;5041976;28;20188;-77
2023/10/23 11:27:01;;;;;;;5.03;2.67;;;;;;;12.83;100.00;99719.19;5040697;28;20215;-77